Terminal Aerodrome Forecast
Issued by NWS Wakefield, VA

Home | Current Version | Previous Version | Text Only | Print | Product List | Glossary On
Versions: 1 2 3 4 5 6 7 8 9 10 11 12 13 14 15 16 17 18 19
000
FTUS41 KAKQ 012000 AAA
TAFRIC
TAF AMD
KRIC 012058Z 0121/0218 VRB03KT 5SM -FZRA BR BKN007 OVC020
      TEMPO 0121/0124 2SM -FZRA BR OVC015
     FM020200 23004KT 3SM BR OVC015
     FM020800 22005KT 5SM BR OVC035
     FM021300 24008KT P6SM SCT035 OVC060=

USA.gov is the U.S. government's official web portal to all federal, state and local government web resources and services.